createdAt,value
2022-10-04T00:00:49.157Z,5.21
2022-10-04T00:03:30.866Z,5.09
2022-10-04T00:06:00.851Z,5.03
2022-10-04T00:08:44.483Z,5.05
2022-10-04T00:11:19.151Z,5.01
2022-10-04T00:13:54.013Z,4.96
2022-10-04T00:16:40.752Z,5.01
2022-10-04T00:19:15.984Z,4.94
2022-10-04T00:21:57.692Z,4.92
2022-10-04T00:24:32.369Z,4.88
2022-10-04T00:27:19.008Z,4.88
2022-10-04T00:30:09.399Z,4.83
2022-10-04T00:32:39.409Z,4.83
2022-10-04T00:35:24.524Z,4.78
2022-10-04T00:38:14.858Z,4.73
2022-10-04T00:41:08.728Z,4.71
2022-10-04T00:43:42.608Z,4.70
2022-10-04T00:46:18.551Z,4.66
2022-10-04T00:49:06.730Z,4.66
2022-10-04T00:51:41.632Z,4.62
2022-10-04T00:54:32.461Z,4.59
2022-10-04T00:57:07.465Z,4.57
2022-10-04T00:59:44.446Z,4.49
2022-10-04T01:02:16.472Z,4.45
2022-10-04T01:04:52.536Z,4.49
2022-10-04T01:07:26.969Z,4.46
2022-10-04T01:10:01.356Z,4.40
2022-10-04T01:12:36.519Z,4.36
2022-10-04T01:15:14.220Z,4.33
2022-10-04T01:17:40.608Z,4.34
2022-10-04T01:20:34.497Z,4.38
2022-10-04T01:23:03.573Z,4.33
2022-10-04T01:25:50.259Z,4.32
2022-10-04T01:28:16.912Z,4.34
2022-10-04T01:30:43.966Z,4.29
2022-10-04T01:33:12.434Z,4.28
2022-10-04T01:35:39.072Z,4.30
2022-10-04T01:40:57.203Z,4.23
2022-10-04T01:43:31.786Z,4.22
2022-10-04T01:46:09.642Z,4.27
2022-10-04T01:48:37.661Z,4.28
2022-10-04T01:51:19.155Z,4.28
2022-10-04T01:53:54.427Z,4.30
2022-10-04T01:56:28.535Z,4.20
2022-10-04T01:59:01.974Z,4.14
2022-10-04T02:01:50.409Z,4.12
2022-10-04T02:04:27.188Z,4.08
2022-10-04T02:06:55.510Z,4.10
2022-10-04T02:09:43.646Z,4.07
2022-10-04T02:12:16.191Z,4.09
2022-10-04T02:14:52.623Z,4.04
2022-10-04T02:17:23.211Z,4.04
2022-10-04T02:19:50.469Z,4.06
2022-10-04T02:22:18.278Z,4.08
2022-10-04T02:24:48.282Z,4.06
2022-10-04T02:27:15.743Z,4.02
2022-10-04T02:29:42.691Z,3.94
2022-10-04T02:32:29.224Z,3.95
2022-10-04T02:34:57.043Z,3.90
2022-10-04T02:37:26.787Z,3.90
2022-10-04T02:40:07.627Z,3.90
2022-10-04T02:42:34.553Z,3.85
2022-10-04T02:45:13.620Z,3.82
2022-10-04T02:48:06.090Z,3.86
2022-10-04T02:50:44.211Z,3.92
2022-10-04T02:53:50.134Z,4.00
2022-10-04T02:56:18.005Z,3.97
2022-10-04T02:58:44.662Z,3.93
2022-10-04T03:01:26.501Z,3.87
2022-10-04T03:03:55.971Z,3.92
2022-10-04T03:06:26.125Z,3.88
2022-10-04T03:09:02.820Z,3.94
2022-10-04T03:11:33.967Z,3.82
2022-10-04T03:14:05.215Z,3.72
2022-10-04T03:16:39.352Z,3.64
2022-10-04T03:19:06.580Z,3.60
2022-10-04T03:21:33.944Z,3.47
2022-10-04T03:24:03.379Z,3.36
2022-10-04T03:26:37.520Z,3.33
2022-10-04T03:29:10.153Z,3.29
2022-10-04T03:32:04.250Z,3.29
2022-10-04T03:34:36.546Z,3.29
2022-10-04T03:37:06.060Z,3.28
2022-10-04T03:39:43.560Z,3.32
2022-10-04T03:42:20.299Z,3.31
2022-10-04T03:44:49.250Z,3.34
2022-10-04T03:47:33.774Z,3.38
2022-10-04T03:50:04.992Z,3.37
2022-10-04T03:52:32.731Z,3.34
2022-10-04T03:55:03.096Z,3.36
2022-10-04T03:57:30.819Z,3.31
2022-10-04T03:59:58.924Z,3.28
2022-10-04T04:02:46.448Z,3.24
2022-10-04T04:05:29.461Z,3.26
2022-10-04T04:08:04.404Z,3.31
2022-10-04T04:10:35.766Z,3.35
2022-10-04T04:13:10.930Z,3.36
2022-10-04T04:15:38.018Z,3.36
2022-10-04T04:18:10.903Z,3.35
2022-10-04T04:20:38.490Z,3.39
2022-10-04T04:23:13.940Z,3.46
2022-10-04T04:25:43.954Z,3.61
2022-10-04T04:28:33.385Z,3.78
2022-10-04T04:31:04.484Z,3.82
2022-10-04T04:33:47.188Z,3.80
2022-10-04T04:36:16.948Z,3.79
2022-10-04T04:39:16.136Z,3.81
2022-10-04T04:41:45.784Z,3.83
2022-10-04T04:44:19.397Z,3.81
2022-10-04T04:46:47.570Z,3.77
2022-10-04T04:49:17.911Z,3.77
2022-10-04T04:51:51.298Z,3.66
2022-10-04T04:54:22.028Z,3.62
2022-10-04T04:56:52.880Z,3.62
2022-10-04T04:59:22.378Z,3.66
2022-10-04T05:01:50.205Z,3.72
2022-10-04T05:04:20.838Z,3.76
2022-10-04T05:07:16.207Z,3.86
2022-10-04T05:09:42.528Z,3.92
2022-10-04T05:12:15.982Z,3.99
2022-10-04T05:14:49.339Z,4.06
2022-10-04T05:17:24.068Z,4.17
2022-10-04T05:19:55.859Z,4.24
2022-10-04T05:22:24.896Z,4.30
2022-10-04T05:24:59.943Z,4.36
2022-10-04T05:27:42.641Z,4.50
2022-10-04T05:30:09.594Z,4.38
2022-10-04T05:32:55.614Z,4.33
2022-10-04T05:35:23.438Z,4.35
2022-10-04T05:38:02.491Z,4.36
2022-10-04T05:40:50.713Z,4.37
2022-10-04T05:43:41.406Z,4.38
2022-10-04T05:46:26.879Z,4.52
2022-10-04T05:49:01.870Z,4.61
2022-10-04T05:51:30.719Z,4.68
2022-10-04T05:54:00.977Z,4.77
2022-10-04T05:56:30.138Z,4.70
2022-10-04T05:59:09.572Z,4.62
2022-10-04T06:02:03.344Z,4.70
2022-10-04T06:04:45.364Z,4.82
2022-10-04T06:07:38.088Z,4.92
2022-10-04T06:10:26.013Z,4.97
2022-10-04T06:13:09.598Z,4.91
2022-10-04T06:15:51.433Z,4.88
2022-10-04T06:18:23.587Z,4.85
2022-10-04T06:21:05.939Z,4.73
2022-10-04T06:23:41.838Z,4.72
2022-10-04T06:26:13.776Z,4.79
2022-10-04T06:28:48.074Z,4.87
2022-10-04T06:31:24.514Z,4.90
2022-10-04T06:34:24.621Z,4.91
2022-10-04T06:37:17.291Z,4.95
2022-10-04T06:40:20.678Z,5.04
2022-10-04T06:42:48.008Z,5.11
2022-10-04T06:45:42.501Z,5.17
2022-10-04T06:48:27.371Z,5.11
2022-10-04T06:51:09.188Z,5.16
2022-10-04T06:54:06.088Z,5.34
2022-10-04T06:56:47.301Z,5.48
2022-10-04T06:59:36.160Z,5.55
2022-10-04T07:02:14.102Z,5.79
2022-10-04T07:05:11.514Z,5.92
2022-10-04T07:07:41.949Z,5.97
2022-10-04T07:10:08.262Z,5.87
2022-10-04T07:12:39.132Z,5.89
2022-10-04T07:15:18.662Z,6.00
2022-10-04T07:17:48.013Z,5.98
2022-10-04T07:20:22.562Z,5.91
2022-10-04T07:22:57.543Z,6.01
2022-10-04T07:25:33.985Z,6.17
2022-10-04T07:28:33.357Z,6.28
2022-10-04T07:31:14.730Z,6.59
2022-10-04T07:33:52.195Z,7.26
2022-10-04T07:36:45.282Z,7.32
2022-10-04T07:39:20.937Z,7.36
2022-10-04T07:41:50.272Z,7.32
2022-10-04T07:44:45.436Z,7.49
2022-10-04T07:47:20.706Z,7.70
2022-10-04T07:49:50.872Z,7.79
2022-10-04T07:52:29.246Z,7.76
2022-10-04T07:55:02.104Z,7.83
2022-10-04T07:57:41.637Z,7.67
2022-10-04T08:00:13.552Z,7.60
2022-10-04T08:03:09.571Z,7.58
2022-10-04T08:05:45.576Z,7.80
2022-10-04T08:08:34.505Z,7.82
2022-10-04T08:11:23.655Z,7.86
2022-10-04T08:14:17.320Z,7.87
2022-10-04T08:17:15.775Z,7.78
2022-10-04T08:20:02.773Z,7.76
2022-10-04T08:23:07.047Z,7.74
2022-10-04T08:26:15.032Z,8.04
2022-10-04T08:29:12.406Z,8.17
2022-10-04T08:31:46.296Z,8.21
2022-10-04T08:34:28.977Z,8.20
2022-10-04T08:37:30.664Z,8.42
2022-10-04T08:40:33.224Z,8.74
2022-10-04T08:43:33.987Z,8.82
2022-10-04T08:46:26.021Z,9.16
2022-10-04T08:49:13.584Z,9.22
2022-10-04T08:51:58.444Z,9.50
2022-10-04T08:54:57.023Z,9.36
2022-10-04T08:57:43.867Z,9.18
2022-10-04T09:00:20.848Z,9.56
2022-10-04T09:03:06.089Z,9.81
2022-10-04T09:05:50.378Z,9.80
2022-10-04T09:08:47.854Z,9.49
2022-10-04T09:11:34.527Z,9.87
2022-10-04T09:14:31.671Z,10.16
2022-10-04T09:17:22.314Z,10.07
2022-10-04T09:20:36.759Z,10.23
2022-10-04T09:23:33.585Z,10.45
2022-10-04T09:26:37.360Z,9.98
2022-10-04T09:29:33.488Z,10.24
2022-10-04T09:32:05.912Z,10.61
2022-10-04T09:35:03.850Z,11.03
2022-10-04T09:38:06.489Z,11.31
2022-10-04T09:41:08.432Z,11.14
2022-10-04T09:43:46.651Z,11.64
2022-10-04T09:46:37.525Z,11.62
2022-10-04T09:49:36.703Z,11.84
2022-10-04T09:52:18.167Z,11.81
2022-10-04T09:55:13.406Z,12.16
2022-10-04T09:58:07.600Z,12.31
2022-10-04T10:00:50.358Z,12.69
2022-10-04T10:03:37.954Z,12.33
2022-10-04T10:06:34.651Z,12.88
2022-10-04T10:10:07.307Z,13.47
2022-10-04T10:13:31.996Z,13.74
2022-10-04T10:16:19.959Z,13.43
2022-10-04T10:19:28.312Z,13.81
2022-10-04T10:22:32.247Z,14.92
2022-10-04T10:25:07.735Z,14.76
2022-10-04T10:27:57.233Z,14.06
2022-10-04T10:30:35.672Z,14.62
2022-10-04T10:33:38.177Z,14.69
2022-10-04T10:36:21.327Z,14.55
2022-10-04T10:39:22.440Z,14.30
2022-10-04T10:42:14.535Z,14.64
2022-10-04T10:44:41.497Z,15.57
2022-10-04T10:47:50.815Z,15.18
2022-10-04T10:50:26.141Z,16.01
2022-10-04T10:53:29.920Z,16.31
2022-10-04T10:56:30.501Z,17.47
2022-10-04T10:59:25.256Z,17.79
2022-10-04T11:02:18.117Z,18.08
2022-10-04T11:04:54.153Z,18.95
2022-10-04T11:07:50.750Z,18.73
2022-10-04T11:10:41.987Z,19.35
2022-10-04T11:13:28.040Z,17.10
2022-10-04T11:16:25.069Z,17.21
2022-10-04T11:19:34.719Z,17.52
2022-10-04T11:22:18.981Z,18.63
2022-10-04T11:25:15.986Z,19.21
2022-10-04T11:28:02.337Z,19.99
2022-10-04T11:31:10.009Z,19.80
2022-10-04T11:33:58.177Z,19.20
2022-10-04T11:36:47.586Z,18.31
2022-10-04T11:39:30.283Z,19.04
2022-10-04T11:42:23.128Z,18.81
2022-10-04T11:45:23.056Z,18.59
2022-10-04T11:48:43.258Z,17.63
2022-10-04T11:51:22.525Z,17.09
2022-10-04T11:54:10.229Z,16.55
2022-10-04T11:57:25.995Z,16.85
2022-10-04T12:00:20.871Z,16.89
2022-10-04T12:03:44.273Z,18.46
2022-10-04T12:06:33.704Z,20.23
2022-10-04T12:09:27.658Z,20.56
2022-10-04T12:12:30.887Z,21.01
2022-10-04T12:15:04.116Z,21.24
2022-10-04T12:18:05.167Z,22.36
2022-10-04T12:20:51.175Z,23.37
2022-10-04T12:23:20.206Z,22.84
2022-10-04T12:26:07.172Z,22.36
2022-10-04T12:29:10.236Z,22.23
2022-10-04T12:31:53.249Z,23.44
2022-10-04T12:34:41.377Z,24.10
2022-10-04T12:37:16.924Z,24.57
2022-10-04T12:40:06.873Z,24.54
2022-10-04T12:42:47.159Z,24.63
2022-10-04T12:45:42.444Z,26.21
2022-10-04T12:48:22.912Z,26.97
2022-10-04T12:51:01.381Z,27.12
2022-10-04T12:53:42.855Z,28.32
2022-10-04T12:56:32.012Z,27.97
2022-10-04T12:59:35.293Z,26.23
2022-10-04T13:02:12.688Z,25.88
2022-10-04T13:04:49.350Z,24.79
2022-10-04T13:07:21.651Z,24.01
2022-10-04T13:10:19.244Z,24.39
2022-10-04T13:13:28.243Z,24.29
2022-10-04T13:19:16.557Z,26.33
2022-10-04T13:21:52.831Z,24.54
2022-10-04T13:24:31.026Z,24.06
2022-10-04T13:27:13.974Z,25.59
2022-10-04T13:30:06.647Z,26.95
2022-10-04T13:32:48.412Z,27.19
2022-10-04T13:35:21.937Z,27.00
2022-10-04T13:38:29.235Z,27.50
2022-10-04T13:41:08.504Z,26.42
2022-10-04T13:43:49.443Z,27.03
2022-10-04T13:46:27.950Z,26.41
2022-10-04T13:48:57.352Z,26.33
2022-10-04T13:52:15.439Z,24.99
2022-10-04T13:55:29.616Z,24.87
2022-10-04T13:58:10.946Z,25.41
2022-10-04T14:01:05.231Z,26.19
2022-10-04T14:03:49.058Z,24.70
2022-10-04T14:06:37.137Z,23.51
2022-10-04T14:09:15.504Z,21.16
2022-10-04T14:12:33.798Z,22.38
2022-10-04T14:15:27.740Z,23.21
2022-10-04T14:18:15.955Z,23.15
2022-10-04T14:21:19.166Z,23.50
2022-10-04T14:24:36.789Z,23.28
2022-10-04T14:27:39.783Z,20.27
2022-10-04T14:30:12.486Z,19.52
2022-10-04T14:32:51.904Z,19.00
2022-10-04T14:35:27.577Z,18.00
2022-10-04T14:38:13.000Z,17.75
2022-10-04T14:41:12.158Z,17.47
2022-10-04T14:44:12.826Z,17.75
2022-10-04T14:46:57.096Z,18.34
2022-10-04T14:50:00.710Z,18.16
2022-10-04T14:52:52.567Z,16.46
2022-10-04T14:55:36.150Z,16.58
2022-10-04T14:58:11.959Z,16.93
2022-10-04T15:01:03.653Z,16.89
2022-10-04T15:03:36.113Z,16.50
2022-10-04T15:06:12.019Z,16.61
2022-10-04T15:09:12.344Z,16.45
2022-10-04T15:12:25.640Z,16.16
2022-10-04T15:15:02.655Z,15.77
2022-10-04T15:17:37.691Z,15.79
2022-10-04T15:20:24.788Z,15.52
2022-10-04T15:22:54.149Z,15.63
2022-10-04T15:25:39.653Z,15.62
2022-10-04T15:28:12.138Z,15.34
2022-10-04T15:30:56.692Z,15.04
2022-10-04T15:33:48.779Z,15.19
2022-10-04T15:36:37.188Z,15.09
2022-10-04T15:39:21.500Z,15.10
2022-10-04T15:42:07.068Z,14.98
2022-10-04T15:45:04.663Z,14.82
2022-10-04T15:47:49.288Z,14.72
2022-10-04T15:50:29.255Z,14.47
2022-10-04T15:53:20.194Z,14.51
2022-10-04T15:56:12.128Z,14.47
2022-10-04T15:59:18.997Z,14.35
2022-10-04T16:02:03.102Z,14.26
2022-10-04T16:04:40.239Z,14.13
2022-10-04T16:07:06.537Z,13.92
2022-10-04T16:09:40.380Z,13.73
2022-10-04T16:12:20.004Z,13.59
2022-10-04T16:14:58.850Z,13.54
2022-10-04T16:17:43.990Z,13.33
2022-10-04T16:20:40.530Z,13.17
2022-10-04T16:23:44.067Z,13.01
2022-10-04T16:26:19.408Z,13.02
2022-10-04T16:29:00.680Z,12.91
2022-10-04T16:31:46.227Z,12.70
2022-10-04T16:34:45.257Z,12.61
2022-10-04T16:37:23.784Z,12.49
2022-10-04T16:40:00.739Z,12.44
2022-10-04T16:42:45.389Z,12.47
2022-10-04T16:45:14.667Z,12.40
2022-10-04T16:47:56.468Z,12.27
2022-10-04T16:51:01.637Z,12.21
2022-10-04T16:53:46.610Z,12.14
2022-10-04T16:56:24.088Z,12.05
2022-10-04T16:58:56.499Z,11.94
2022-10-04T17:01:22.973Z,11.89
2022-10-04T17:04:04.474Z,11.78
2022-10-04T17:06:49.668Z,11.64
2022-10-04T17:09:35.395Z,11.61
2022-10-04T17:12:17.567Z,11.56
2022-10-04T17:14:55.226Z,11.50
2022-10-04T17:17:46.638Z,11.41
2022-10-04T17:20:13.070Z,11.37
2022-10-04T17:23:03.942Z,11.34
2022-10-04T17:25:48.455Z,11.34
2022-10-04T17:28:31.579Z,11.23
2022-10-04T17:31:09.028Z,11.18
2022-10-04T17:34:07.749Z,11.08
2022-10-04T17:36:54.927Z,11.10
2022-10-04T17:39:34.526Z,11.13
2022-10-04T17:42:13.250Z,11.14
2022-10-04T17:44:45.461Z,10.99
2022-10-04T17:47:54.971Z,10.89
2022-10-04T17:50:48.757Z,10.82
2022-10-04T17:53:39.019Z,10.68
2022-10-04T17:56:07.502Z,10.58
2022-10-04T17:58:52.268Z,10.53
2022-10-04T18:01:55.932Z,10.54
2022-10-04T18:04:30.483Z,10.60
2022-10-04T18:07:21.354Z,10.56
2022-10-04T18:09:55.898Z,10.53
2022-10-04T18:12:28.570Z,10.46
2022-10-04T18:15:06.000Z,10.39
2022-10-04T18:17:42.681Z,10.32
2022-10-04T18:20:08.970Z,10.30
2022-10-04T18:22:47.082Z,10.24
2022-10-04T18:25:14.046Z,10.16
2022-10-04T18:28:06.874Z,10.09
2022-10-04T18:30:48.950Z,9.99
2022-10-04T18:33:19.598Z,9.98
2022-10-04T18:36:05.162Z,9.99
2022-10-04T18:38:34.424Z,9.98
2022-10-04T18:41:13.020Z,9.95
2022-10-04T18:43:51.515Z,10.02
2022-10-04T18:46:24.888Z,10.01
2022-10-04T18:48:56.318Z,9.97
2022-10-04T18:51:26.097Z,10.03
2022-10-04T18:54:06.343Z,9.96
2022-10-04T18:56:52.773Z,9.72
2022-10-04T19:00:01.034Z,9.47
2022-10-04T19:03:04.684Z,9.30
2022-10-04T19:05:57.159Z,9.26
2022-10-04T19:08:47.926Z,9.27
2022-10-04T19:11:26.634Z,9.27
2022-10-04T19:14:17.875Z,9.25
2022-10-04T19:17:05.363Z,9.25
2022-10-04T19:19:39.919Z,9.26
2022-10-04T19:22:35.000Z,9.22
2022-10-04T19:25:17.096Z,9.16
2022-10-04T19:27:57.199Z,9.21
2022-10-04T19:30:41.643Z,9.20
2022-10-04T19:33:29.570Z,9.12
2022-10-04T19:36:24.316Z,9.01
2022-10-04T19:39:12.534Z,8.97
2022-10-04T19:41:56.594Z,8.85
2022-10-04T19:44:35.479Z,8.76
2022-10-04T19:47:16.190Z,8.61
2022-10-04T19:50:01.992Z,8.50
2022-10-04T19:52:35.634Z,8.51
2022-10-04T19:55:17.536Z,8.66
2022-10-04T19:58:15.660Z,8.74
2022-10-04T20:00:42.050Z,8.86
2022-10-04T20:03:15.071Z,8.92
2022-10-04T20:05:47.254Z,8.85
2022-10-04T20:08:17.155Z,8.86
2022-10-04T20:10:44.141Z,8.82
2022-10-04T20:13:10.726Z,8.89
2022-10-04T20:15:37.711Z,8.89
2022-10-04T20:18:31.741Z,8.82
2022-10-04T20:20:59.953Z,8.72
2022-10-04T20:23:38.716Z,8.70
2022-10-04T20:26:08.814Z,8.72
2022-10-04T20:28:41.703Z,8.81
2022-10-04T20:31:10.461Z,8.81
2022-10-04T20:33:38.815Z,8.77
2022-10-04T20:36:31.394Z,8.70
2022-10-04T20:38:59.611Z,8.73
2022-10-04T20:41:28.806Z,8.75
2022-10-04T20:44:03.901Z,8.70
2022-10-04T20:46:39.793Z,8.67
2022-10-04T20:49:16.027Z,8.62
2022-10-04T20:51:49.731Z,8.53
2022-10-04T20:54:20.880Z,8.53
2022-10-04T20:56:49.926Z,8.45
2022-10-04T20:59:18.223Z,8.40
2022-10-04T21:02:01.623Z,8.38
2022-10-04T21:04:32.399Z,8.30
2022-10-04T21:07:05.709Z,8.20
2022-10-04T21:09:34.092Z,8.14
2022-10-04T21:12:01.711Z,8.05
2022-10-04T21:14:27.971Z,8.08
2022-10-04T21:17:01.414Z,8.07
2022-10-04T21:19:44.419Z,8.04
2022-10-04T21:22:31.977Z,8.01
2022-10-04T21:25:25.802Z,8.08
2022-10-04T21:27:53.190Z,8.04
2022-10-04T21:30:19.729Z,7.98
2022-10-04T21:32:46.367Z,8.02
2022-10-04T21:35:13.358Z,7.96
2022-10-04T21:37:40.043Z,8.02
2022-10-04T21:40:07.428Z,7.96
2022-10-04T21:42:33.920Z,7.94
2022-10-04T21:45:00.391Z,8.01
2022-10-04T21:47:26.742Z,7.93
2022-10-04T21:49:53.857Z,7.89
2022-10-04T21:52:20.725Z,7.83
2022-10-04T21:54:47.266Z,7.84
2022-10-04T21:57:13.633Z,7.81
2022-10-04T21:59:40.015Z,7.84
2022-10-04T22:02:07.699Z,7.83
2022-10-04T22:04:34.646Z,7.83
2022-10-04T22:07:01.134Z,7.81
2022-10-04T22:09:27.540Z,7.80
2022-10-04T22:11:53.927Z,7.74
2022-10-04T22:14:20.234Z,7.71
2022-10-04T22:16:46.886Z,7.67
2022-10-04T22:19:13.428Z,7.65
2022-10-04T22:21:39.798Z,7.67
2022-10-04T22:24:16.275Z,7.64
2022-10-04T22:26:42.734Z,7.66
2022-10-04T22:29:13.481Z,7.64
2022-10-04T22:31:43.917Z,7.63
2022-10-04T22:34:19.325Z,7.59
2022-10-04T22:36:47.703Z,7.62
2022-10-04T22:39:17.477Z,7.70
2022-10-04T22:41:59.634Z,7.77
2022-10-04T22:44:36.343Z,7.78
2022-10-04T22:47:04.623Z,7.75
2022-10-04T22:49:34.337Z,7.70
2022-10-04T22:52:03.955Z,7.62
2022-10-04T22:54:35.548Z,7.55
2022-10-04T22:57:02.224Z,7.55
2022-10-04T22:59:37.459Z,7.61
2022-10-04T23:02:10.683Z,7.59
2022-10-04T23:04:37.177Z,7.59
2022-10-04T23:07:03.634Z,7.52
2022-10-04T23:09:29.972Z,7.55
2022-10-04T23:11:56.306Z,7.56
2022-10-04T23:14:22.617Z,7.57
2022-10-04T23:16:49.514Z,7.46
2022-10-04T23:19:19.960Z,7.47
2022-10-04T23:21:48.607Z,7.48
2022-10-04T23:24:20.607Z,7.39
2022-10-04T23:26:55.131Z,7.48
2022-10-04T23:29:24.726Z,7.40
2022-10-04T23:31:52.366Z,7.37
2022-10-04T23:34:25.713Z,7.33
2022-10-04T23:36:52.359Z,7.27
2022-10-04T23:39:24.949Z,7.26
2022-10-04T23:41:53.632Z,7.28
2022-10-04T23:44:22.124Z,7.24
2022-10-04T23:46:48.783Z,7.21
2022-10-04T23:49:20.204Z,7.11
2022-10-04T23:51:48.021Z,7.08
2022-10-04T23:54:20.010Z,7.01
2022-10-04T23:56:47.212Z,6.99
2022-10-04T23:59:19.328Z,7.03
